createdAt,value
2019-01-13T00:00:00.573Z,18.40
2019-01-13T00:06:21.119Z,18.40
2019-01-13T00:09:20.316Z,18.40
2019-01-13T00:12:13.886Z,18.40
2019-01-13T00:15:19.106Z,18.40
2019-01-13T00:18:18.643Z,18.40
2019-01-13T00:21:10.425Z,18.40
2019-01-13T00:24:19.246Z,18.40
2019-01-13T00:27:11.741Z,18.40
2019-01-13T00:30:19.324Z,18.40
2019-01-13T00:33:09.075Z,18.40
2019-01-13T00:36:20.384Z,18.40
2019-01-13T00:39:19.633Z,18.40
2019-01-13T00:42:24.950Z,18.40
2019-01-13T00:45:17.977Z,18.40
2019-01-13T00:48:11.594Z,18.40
2019-01-13T00:51:06.072Z,18.40
2019-01-13T00:54:05.245Z,18.40
2019-01-13T00:56:58.222Z,18.40
2019-01-13T00:59:58.019Z,18.40
2019-01-13T01:02:52.150Z,18.40
2019-01-13T01:05:57.435Z,18.40
2019-01-13T01:08:56.700Z,18.40
2019-01-13T01:12:12.320Z,18.40
2019-01-13T01:15:04.584Z,18.40
2019-01-13T01:17:56.237Z,18.30
2019-01-13T01:20:55.821Z,18.30
2019-01-13T01:23:48.694Z,18.40
2019-01-13T01:26:41.789Z,18.30
2019-01-13T01:29:34.678Z,18.30
2019-01-13T01:32:35.582Z,18.30
2019-01-13T01:35:33.632Z,18.30
2019-01-13T01:38:26.538Z,18.30
2019-01-13T01:41:31.802Z,18.30
2019-01-13T01:44:36.935Z,18.30
2019-01-13T01:47:58.838Z,18.30
2019-01-13T01:50:51.691Z,18.30
2019-01-13T01:53:45.330Z,18.30
2019-01-13T01:56:38.802Z,18.30
2019-01-13T02:00:04.166Z,18.30
2019-01-13T02:03:20.152Z,18.30
2019-01-13T02:06:15.535Z,18.30
2019-01-13T02:09:19.567Z,18.30
2019-01-13T02:12:24.912Z,18.30
2019-01-13T02:15:24.372Z,18.30
2019-01-13T02:18:17.267Z,18.30
2019-01-13T02:21:15.677Z,18.30
2019-01-13T02:24:27.579Z,18.40
2019-01-13T02:27:19.763Z,18.40
2019-01-13T02:30:12.788Z,18.40
2019-01-13T02:33:05.772Z,18.40
2019-01-13T02:35:58.989Z,18.40
2019-01-13T02:39:11.888Z,18.40
2019-01-13T02:42:09.922Z,18.40
2019-01-13T02:45:24.684Z,18.40
2019-01-13T02:48:29.056Z,18.40
2019-01-13T02:51:33.940Z,18.40
2019-01-13T02:54:46.779Z,18.40
2019-01-13T02:57:49.357Z,18.40
2019-01-13T03:00:57.179Z,18.40
2019-01-13T03:03:47.944Z,18.50
2019-01-13T03:07:01.008Z,18.50
2019-01-13T03:10:00.696Z,18.50
2019-01-13T03:13:05.534Z,18.50
2019-01-13T03:15:59.211Z,18.50
2019-01-13T03:19:07.976Z,18.50
2019-01-13T03:22:01.546Z,18.50
2019-01-13T03:25:06.846Z,18.50
2019-01-13T03:28:00.849Z,18.50
2019-01-13T03:31:11.154Z,18.50
2019-01-13T06:29:32.979Z,18.60
2019-01-13T06:32:24.947Z,18.60
2019-01-13T06:35:18.910Z,18.60
2019-01-13T06:38:10.880Z,18.60
2019-01-13T06:41:02.481Z,18.60
2019-01-13T06:43:54.099Z,18.60
2019-01-13T06:46:45.945Z,18.60
2019-01-13T06:49:38.287Z,18.60
2019-01-13T06:52:30.221Z,18.60
2019-01-13T06:55:22.374Z,18.70
2019-01-13T06:58:14.765Z,18.60
2019-01-13T07:01:13.136Z,18.60
2019-01-13T07:04:04.791Z,18.60
2019-01-13T07:07:04.176Z,18.60
2019-01-13T07:09:56.180Z,18.60
2019-01-13T07:12:48.273Z,18.70
2019-01-13T07:15:46.444Z,18.70
2019-01-13T07:18:38.381Z,18.70
2019-01-13T07:21:31.585Z,18.70
2019-01-13T07:24:23.325Z,18.70
2019-01-13T07:27:15.417Z,18.70
2019-01-13T07:30:08.181Z,18.70
2019-01-13T07:33:00.384Z,18.70
2019-01-13T07:35:51.928Z,18.70
2019-01-13T07:38:44.467Z,18.70
2019-01-13T07:41:36.097Z,18.70
2019-01-13T07:44:28.111Z,18.70
2019-01-13T07:47:19.902Z,18.70
2019-01-13T07:50:18.179Z,18.70
2019-01-13T07:53:10.150Z,18.70
2019-01-13T07:56:14.945Z,18.70
2019-01-13T07:59:06.644Z,18.70
2019-01-13T08:01:58.716Z,18.70
2019-01-13T08:04:50.391Z,18.70
2019-01-13T08:07:42.689Z,18.70
2019-01-13T08:10:35.528Z,18.70
2019-01-13T08:13:26.867Z,18.70
2019-01-13T08:16:18.597Z,18.70
2019-01-13T08:19:10.634Z,18.70
2019-01-13T08:22:02.057Z,18.70
2019-01-13T08:24:55.542Z,18.70
2019-01-13T08:27:47.546Z,18.70
2019-01-13T08:30:39.344Z,18.70
2019-01-13T08:33:31.444Z,18.70
2019-01-13T08:36:23.524Z,18.70
2019-01-13T08:39:15.353Z,18.70
2019-01-13T08:42:10.008Z,18.70
2019-01-13T08:45:01.583Z,18.70
2019-01-13T08:47:53.465Z,18.70
2019-01-13T08:50:45.539Z,18.70
2019-01-13T08:54:02.821Z,18.70
2019-01-13T08:57:00.883Z,18.70
2019-01-13T08:59:53.693Z,18.80
2019-01-13T09:02:46.200Z,18.80
2019-01-13T09:05:20.270Z,18.70
2019-01-13T09:08:19.211Z,18.70
2019-01-13T09:11:11.208Z,18.80
2019-01-13T09:14:02.797Z,18.70
2019-01-13T09:16:54.732Z,18.80
2019-01-13T09:19:46.215Z,18.80
2019-01-13T09:22:37.840Z,18.70
2019-01-13T09:25:30.209Z,18.80
2019-01-13T09:28:22.467Z,18.70
2019-01-13T09:31:14.352Z,18.70
2019-01-13T09:34:32.234Z,18.80
2019-01-13T09:37:30.959Z,18.70
2019-01-13T09:40:46.912Z,18.80
2019-01-13T09:43:46.501Z,18.70
2019-01-13T09:46:53.862Z,18.80
2019-01-13T09:49:49.885Z,18.80
2019-01-13T09:52:49.760Z,18.80
2019-01-13T09:55:41.891Z,18.80
2019-01-13T09:58:33.537Z,18.80
2019-01-13T10:01:25.595Z,18.80
2019-01-13T10:04:41.326Z,18.80
2019-01-13T10:07:32.626Z,18.80
2019-01-13T10:10:24.619Z,18.80
2019-01-13T10:13:16.319Z,18.80
2019-01-13T10:16:08.424Z,18.80
2019-01-13T10:18:59.682Z,18.80
2019-01-13T10:21:51.716Z,18.80
2019-01-13T10:24:43.196Z,18.80
2019-01-13T10:27:35.086Z,18.80
2019-01-13T10:30:27.718Z,18.80
2019-01-13T10:33:19.337Z,18.80
2019-01-13T10:36:10.898Z,18.80
2019-01-13T10:39:13.346Z,18.80
2019-01-13T10:42:04.726Z,18.80
2019-01-13T10:44:56.736Z,18.80
2019-01-13T10:47:48.142Z,18.80
2019-01-13T10:50:41.246Z,18.80
2019-01-13T10:53:32.961Z,18.80
2019-01-13T10:56:24.841Z,18.80
2019-01-13T10:59:17.063Z,18.80
2019-01-13T11:02:09.657Z,18.80
2019-01-13T11:05:02.588Z,18.80
2019-01-13T11:07:54.662Z,18.80
2019-01-13T11:10:46.615Z,18.80
2019-01-13T11:13:38.884Z,18.80
2019-01-13T11:16:30.552Z,18.80
2019-01-13T11:19:23.557Z,18.80
2019-01-13T11:22:15.311Z,18.90
2019-01-13T11:25:07.153Z,18.90
2019-01-13T11:27:59.180Z,18.90
2019-01-13T11:30:51.159Z,18.90
2019-01-13T11:33:43.107Z,18.90
2019-01-13T11:36:34.959Z,18.90
2019-01-13T11:39:27.057Z,18.90
2019-01-13T11:42:19.233Z,18.90
2019-01-13T11:45:11.732Z,18.90
2019-01-13T11:48:04.026Z,18.90
2019-01-13T11:50:55.834Z,18.90
2019-01-13T11:53:55.920Z,18.90
2019-01-13T11:56:56.034Z,18.90
2019-01-13T11:59:49.987Z,19.00
2019-01-13T12:02:42.011Z,19.00
2019-01-13T12:05:33.435Z,19.00
2019-01-13T12:08:24.891Z,19.00
2019-01-13T12:11:16.637Z,19.00
2019-01-13T12:14:09.211Z,19.00
2019-01-13T12:17:00.588Z,19.00
2019-01-13T12:19:55.478Z,19.00
2019-01-13T12:22:46.915Z,19.00
2019-01-13T12:25:38.679Z,19.00
2019-01-13T12:28:30.427Z,19.00
2019-01-13T12:31:22.346Z,19.00
2019-01-13T12:34:16.672Z,19.00
2019-01-13T12:37:08.629Z,19.00
2019-01-13T12:40:00.329Z,19.00
2019-01-13T12:42:52.091Z,19.00
2019-01-13T12:45:51.240Z,19.00
2019-01-13T12:48:43.374Z,19.00
2019-01-13T12:51:35.927Z,19.00
2019-01-13T12:54:28.215Z,19.00
2019-01-13T12:57:19.965Z,19.00
2019-01-13T13:00:16.058Z,18.90
2019-01-13T13:03:07.634Z,18.90
2019-01-13T13:05:59.513Z,18.90
2019-01-13T13:08:51.310Z,18.90
2019-01-13T13:11:43.110Z,18.90
2019-01-13T13:14:34.877Z,18.90
2019-01-13T13:17:26.537Z,18.90
2019-01-13T13:20:18.460Z,19.00
2019-01-13T13:23:11.199Z,18.90
2019-01-13T13:26:02.833Z,18.90
2019-01-13T13:28:54.911Z,18.90
2019-01-13T13:31:49.134Z,19.00
2019-01-13T13:34:41.156Z,18.90
2019-01-13T13:37:32.739Z,18.90
2019-01-13T13:40:24.996Z,18.90
2019-01-13T13:43:16.809Z,18.90
2019-01-13T13:46:08.491Z,18.90
2019-01-13T13:49:00.173Z,18.90
2019-01-13T13:51:52.012Z,18.90
2019-01-13T13:54:43.641Z,18.90
2019-01-13T13:57:35.264Z,18.90
2019-01-13T14:00:28.785Z,18.90
2019-01-13T14:03:20.718Z,18.90
2019-01-13T14:06:24.578Z,18.90
2019-01-13T14:09:16.706Z,18.90
2019-01-13T14:12:08.237Z,18.90
2019-01-13T14:14:59.980Z,18.90
2019-01-13T14:17:51.686Z,18.90
2019-01-13T14:20:44.153Z,18.90
2019-01-13T14:23:50.783Z,18.90
2019-01-13T14:26:42.710Z,18.90
2019-01-13T14:29:34.552Z,18.90
2019-01-13T14:32:26.581Z,18.90
2019-01-13T14:35:18.158Z,18.90
2019-01-13T14:38:10.349Z,18.90
2019-01-13T14:41:03.491Z,18.90
2019-01-13T14:43:55.157Z,18.90
2019-01-13T14:46:48.166Z,18.90
2019-01-13T14:49:40.353Z,18.90
2019-01-13T14:52:32.079Z,18.90
2019-01-13T14:55:25.194Z,18.90
2019-01-13T14:58:16.833Z,18.90
2019-01-13T15:01:08.298Z,18.90
2019-01-13T15:04:00.770Z,18.90
2019-01-13T15:06:52.659Z,18.90
2019-01-13T15:09:45.058Z,18.90
2019-01-13T15:12:47.063Z,18.90
2019-01-13T15:15:39.144Z,18.90
2019-01-13T15:18:32.710Z,18.90
2019-01-13T15:21:24.362Z,18.90
2019-01-13T15:24:17.605Z,18.90
2019-01-13T15:27:15.696Z,18.90
2019-01-13T15:30:08.660Z,18.90
2019-01-13T15:33:01.013Z,18.90
2019-01-13T15:35:54.668Z,18.90
2019-01-13T15:38:46.544Z,18.90
2019-01-13T15:41:38.010Z,18.90
2019-01-13T15:44:29.725Z,18.90
2019-01-13T15:47:21.426Z,18.90
2019-01-13T15:50:14.311Z,18.90
2019-01-13T15:53:06.049Z,18.90
2019-01-13T15:55:57.483Z,18.90
2019-01-13T15:58:50.201Z,18.90
2019-01-13T16:01:41.810Z,18.90
2019-01-13T16:04:33.679Z,18.90
2019-01-13T16:07:25.615Z,18.90
2019-01-13T16:10:18.703Z,18.90
2019-01-13T16:13:10.379Z,18.90
2019-01-13T16:16:02.463Z,18.90
2019-01-13T16:18:54.648Z,18.90
2019-01-13T16:21:46.992Z,18.90
2019-01-13T16:24:38.922Z,18.90
2019-01-13T16:27:31.075Z,18.90
2019-01-13T16:30:25.685Z,18.90
2019-01-13T16:33:18.622Z,18.90
2019-01-13T16:36:10.298Z,18.90
2019-01-13T16:39:02.624Z,18.90
2019-01-13T16:41:54.306Z,18.90
2019-01-13T16:44:46.423Z,18.90
2019-01-13T16:47:38.181Z,18.90
2019-01-13T16:50:30.351Z,18.90
2019-01-13T16:53:22.256Z,18.90
2019-01-13T16:56:14.528Z,18.90
2019-01-13T16:59:06.300Z,18.90
2019-01-13T17:01:58.527Z,18.90
2019-01-13T17:04:50.684Z,18.90
2019-01-13T17:07:42.434Z,18.90
2019-01-13T17:10:34.086Z,18.90
2019-01-13T17:13:26.023Z,18.90
2019-01-13T17:16:17.667Z,18.90
2019-01-13T17:19:09.414Z,18.90
2019-01-13T17:22:00.939Z,18.90
2019-01-13T17:24:52.783Z,18.90
2019-01-13T17:27:45.967Z,18.90
2019-01-13T17:30:38.881Z,18.90
2019-01-13T17:33:31.144Z,18.90
2019-01-13T17:36:24.796Z,18.90
2019-01-13T17:39:17.908Z,18.90
2019-01-13T17:42:09.921Z,18.90
2019-01-13T17:45:01.283Z,18.90
2019-01-13T17:47:54.483Z,18.90
2019-01-13T17:50:45.888Z,18.90
2019-01-13T17:53:38.989Z,18.90
2019-01-13T17:56:30.857Z,18.90
2019-01-13T17:59:40.448Z,18.90
2019-01-13T18:02:32.991Z,18.90
2019-01-13T18:05:25.467Z,18.90
2019-01-13T18:08:17.701Z,18.90
2019-01-13T18:11:10.336Z,18.90
2019-01-13T18:14:02.157Z,18.90
2019-01-13T18:16:53.875Z,18.90
2019-01-13T18:19:45.811Z,18.90
2019-01-13T18:22:37.851Z,18.90
2019-01-13T18:25:29.493Z,18.90
2019-01-13T18:28:21.557Z,18.90
2019-01-13T18:31:13.763Z,18.90
2019-01-13T18:34:06.140Z,18.90
2019-01-13T18:36:57.841Z,18.90
2019-01-13T18:39:50.449Z,18.90
2019-01-13T18:42:42.203Z,18.90
2019-01-13T18:45:34.225Z,18.90
2019-01-13T18:48:26.301Z,18.90
2019-01-13T18:51:17.950Z,18.90
2019-01-13T18:54:09.825Z,18.80
2019-01-13T18:57:01.943Z,18.90
2019-01-13T18:59:53.689Z,18.80
2019-01-13T19:02:49.422Z,18.80
2019-01-13T19:05:40.964Z,18.80
2019-01-13T19:08:32.776Z,18.80
2019-01-13T19:11:34.265Z,18.80
2019-01-13T19:14:42.841Z,18.80
2019-01-13T19:17:35.139Z,18.80
2019-01-13T19:20:28.337Z,18.80
2019-01-13T19:23:22.572Z,18.80
2019-01-13T19:26:15.874Z,18.80
2019-01-13T19:29:08.131Z,18.80
2019-01-13T19:32:00.163Z,18.80
2019-01-13T19:34:52.759Z,18.80
2019-01-13T19:37:44.710Z,18.80
2019-01-13T19:40:36.790Z,18.80
2019-01-13T19:43:29.125Z,18.80
2019-01-13T19:46:23.229Z,18.80
2019-01-13T19:49:15.333Z,18.80
2019-01-13T19:52:07.341Z,18.80
2019-01-13T19:54:59.584Z,18.80
2019-01-13T19:57:53.058Z,18.80
2019-01-13T20:00:45.381Z,18.80
2019-01-13T20:03:37.050Z,18.80
2019-01-13T20:06:28.993Z,18.80
2019-01-13T20:09:21.207Z,18.80
2019-01-13T20:12:13.137Z,18.80
2019-01-13T20:15:05.291Z,18.80
2019-01-13T20:17:56.936Z,18.80
2019-01-13T20:20:49.094Z,18.80
2019-01-13T20:23:41.482Z,18.80
2019-01-13T20:26:33.059Z,18.80
2019-01-13T20:29:25.652Z,18.80
2019-01-13T20:32:17.488Z,18.80
2019-01-13T20:35:10.469Z,18.80
2019-01-13T20:38:02.074Z,18.80
2019-01-13T20:40:54.067Z,18.80
2019-01-13T20:43:46.178Z,18.80
2019-01-13T20:46:37.907Z,18.80
2019-01-13T20:49:29.515Z,18.80
2019-01-13T20:52:21.575Z,18.80
2019-01-13T20:55:13.398Z,18.80
2019-01-13T20:58:05.263Z,18.80
2019-01-13T21:00:57.408Z,18.80
2019-01-13T21:03:49.641Z,18.80
2019-01-13T21:06:41.501Z,18.80
2019-01-13T21:09:33.645Z,18.80
2019-01-13T21:12:25.572Z,18.80
2019-01-13T21:15:18.998Z,18.80
2019-01-13T21:18:10.937Z,18.70
2019-01-13T21:21:02.765Z,18.70
2019-01-13T21:23:54.150Z,18.80
2019-01-13T21:26:45.974Z,18.80
2019-01-13T21:29:37.875Z,18.80
2019-01-13T21:32:29.416Z,18.80
2019-01-13T21:35:21.941Z,18.80
2019-01-13T21:38:13.530Z,18.80
2019-01-13T21:41:05.263Z,18.80
2019-01-13T21:43:57.581Z,18.70
2019-01-13T21:46:49.247Z,18.80
2019-01-13T21:49:47.577Z,18.80
2019-01-13T21:52:39.221Z,18.70
2019-01-13T21:55:30.730Z,18.70
2019-01-13T21:58:22.358Z,18.80
2019-01-13T22:01:14.227Z,18.80
2019-01-13T22:04:05.738Z,18.80
2019-01-13T22:06:57.693Z,18.70
2019-01-13T22:09:49.349Z,18.70
2019-01-13T22:12:40.984Z,18.70
2019-01-13T22:15:32.733Z,18.70
2019-01-13T22:18:24.918Z,18.70
2019-01-13T22:21:16.831Z,18.70
2019-01-13T22:24:09.065Z,18.70
2019-01-13T22:27:01.174Z,18.70
2019-01-13T22:29:53.124Z,18.70
2019-01-13T22:32:44.767Z,18.70
2019-01-13T22:35:36.665Z,18.70
2019-01-13T22:38:28.097Z,18.70
2019-01-13T22:41:20.248Z,18.70
2019-01-13T22:44:12.366Z,18.70
2019-01-13T22:47:04.278Z,18.70
2019-01-13T22:49:56.003Z,18.70
2019-01-13T22:52:47.992Z,18.70
2019-01-13T22:55:39.334Z,18.70
2019-01-13T22:58:31.310Z,18.70
2019-01-13T23:01:30.119Z,18.70
2019-01-13T23:04:23.080Z,18.70
2019-01-13T23:07:14.857Z,18.70
2019-01-13T23:10:07.632Z,18.70
2019-01-13T23:12:59.453Z,18.70
2019-01-13T23:15:51.095Z,18.70
2019-01-13T23:18:42.865Z,18.70
2019-01-13T23:21:34.256Z,18.70
2019-01-13T23:24:25.817Z,18.70
2019-01-13T23:27:17.592Z,18.70
2019-01-13T23:30:09.773Z,18.70
2019-01-13T23:33:10.286Z,18.70
2019-01-13T23:36:02.943Z,18.70
2019-01-13T23:38:54.775Z,18.70
2019-01-13T23:41:46.363Z,18.70
2019-01-13T23:44:38.574Z,18.70
2019-01-13T23:47:29.904Z,18.70
2019-01-13T23:50:21.654Z,18.70
2019-01-13T23:53:12.857Z,18.70
2019-01-13T23:56:05.505Z,18.70
2019-01-13T23:58:57.143Z,18.70
